Mehama, Oregon
Current Conditions -  °F | °C
As of 2:06 AM on Monday 22 Dec 2014 (Local Time) from KSLE Reporting Station
Haze Haze  
Wind Chill: 11°   Ceiling: 1500
Heat Index: 11°   Visibility: 6mi
Dew Point:   Wind: 0mph
Humidity: 92%   Direction: NA
Pressure: 30.22"   Gusts: NA
Location:  44.79°N, 122.62°W
Report Text: KSLE 221006Z AUTO 00000KT 6SM BR FEW006 BKN015 OVC022 11/09 A3022 RMK AO2 T01060094
Loading
Personal Weather Stations






























Interactive Weather Map New forecast layout! Learn more

10-Day Weather Forecast

Advertisements
Track Severe Weather on mobile